KILN/ILN METAR and TAF weather

Enter ICAO airport designator
Station Type Date Time Source
KILN METAR 2019/06/26 04:54 UTC NOAA

KILN 260454Z AUTO 22005KT 10SM CLR 19/16 A3007 RMK AO2 SLP173 T01890161 402830172


Station Type Date Time Source
KILN Decoded METAR 2019/06/26 04:54 UTC NOAA

WILMINGTON INDUSTRIAL AIRPORT , OH, United States (KILN) 39-26N 083-47W 332M
Jun 26, 2019 - 12:54 AM EDT / 2019.06.26 0454 UTC
Wind: from the SW (220 degrees) at 6 MPH (5 KT):0
Visibility: 10 mile(s):0
Sky conditions: clear
Temperature: 66.0 F (18.9 C)
Dew Point: 61.0 F (16.1 C)
Relative Humidity: 83%
Pressure (altimeter): 30.07 in. Hg (1018 hPa)
ob: KILN 260454Z AUTO 22005KT 10SM CLR 19/16 A3007 RMK AO2 SLP173 T01890161 402830172
cycle: 5

Station Type Date Time Source
KILN TAF 2019/06/26 06:42 UTC NOAA

TAF KILN 260540Z 2606/2706 22005KT P6SM FEW150
FM261400 24007KT P6SM SCT150
FM261800 24008KT P6SM SCT050
FM270100 23004KT P6SM FEW150

Example: see airport list